Terminal Aerodrome Forecast
Issued by NWS

Home | Current Version | Previous Version | Text Only | Print | Product List | Glossary On
Versions: 1 2 3 4 5 6 7 8 9 10 11 12
127
FTUS45 KRIW 281125
TAFWRL
TAF
KWRL 281125Z 2812/2912 34015G25KT P6SM -RA SCT028 BKN050
      TEMPO 2812/2815 BKN028
     FM281600 33022G32KT P6SM VCSH SCT020 BKN040
     FM282200 34015KT P6SM SCT030 BKN045
     FM290300 VRB06KT P6SM FEW050=

USA.gov is the U.S. government's official web portal to all federal, state and local government web resources and services.